sensor_id;sensor_type;location;lat;lon;timestamp;P1;durP1;ratioP1;P2;durP2;ratioP2
2558;SDS011;1289;53.488;10.006;2023-10-08T00:01:37;13.33;;;5.17;;
2558;SDS011;1289;53.488;10.006;2023-10-08T00:04:07;6.67;;;4.30;;
2558;SDS011;1289;53.488;10.006;2023-10-08T00:06:35;12.00;;;5.53;;
2558;SDS011;1289;53.488;10.006;2023-10-08T00:09:03;7.83;;;5.90;;
2558;SDS011;1289;53.488;10.006;2023-10-08T00:11:33;10.93;;;5.27;;
2558;SDS011;1289;53.488;10.006;2023-10-08T00:14:01;9.47;;;5.60;;
2558;SDS011;1289;53.488;10.006;2023-10-08T00:16:30;11.27;;;5.47;;
2558;SDS011;1289;53.488;10.006;2023-10-08T00:19:00;9.03;;;5.20;;
2558;SDS011;1289;53.488;10.006;2023-10-08T00:21:33;9.07;;;4.83;;
2558;SDS011;1289;53.488;10.006;2023-10-08T00:24:02;8.10;;;4.93;;
2558;SDS011;1289;53.488;10.006;2023-10-08T00:26:32;11.00;;;5.20;;
2558;SDS011;1289;53.488;10.006;2023-10-08T00:29:01;9.37;;;4.70;;
2558;SDS011;1289;53.488;10.006;2023-10-08T00:31:31;8.43;;;4.70;;
2558;SDS011;1289;53.488;10.006;2023-10-08T00:34:04;7.57;;;4.90;;
2558;SDS011;1289;53.488;10.006;2023-10-08T00:36:33;6.10;;;4.70;;
2558;SDS011;1289;53.488;10.006;2023-10-08T00:39:00;5.73;;;4.60;;
2558;SDS011;1289;53.488;10.006;2023-10-08T00:41:33;8.23;;;4.93;;
2558;SDS011;1289;53.488;10.006;2023-10-08T00:43:59;5.90;;;4.63;;
2558;SDS011;1289;53.488;10.006;2023-10-08T00:46:26;10.30;;;4.73;;
2558;SDS011;1289;53.488;10.006;2023-10-08T00:48:56;6.13;;;4.50;;
2558;SDS011;1289;53.488;10.006;2023-10-08T00:51:25;7.17;;;4.70;;
2558;SDS011;1289;53.488;10.006;2023-10-08T00:54:00;6.30;;;3.87;;
2558;SDS011;1289;53.488;10.006;2023-10-08T00:56:30;6.33;;;3.83;;
2558;SDS011;1289;53.488;10.006;2023-10-08T00:59:11;6.67;;;4.50;;
2558;SDS011;1289;53.488;10.006;2023-10-08T01:01:39;6.23;;;5.43;;
2558;SDS011;1289;53.488;10.006;2023-10-08T01:04:15;7.90;;;4.27;;
2558;SDS011;1289;53.488;10.006;2023-10-08T01:06:43;6.07;;;4.00;;
2558;SDS011;1289;53.488;10.006;2023-10-08T01:09:12;6.10;;;3.80;;
2558;SDS011;1289;53.488;10.006;2023-10-08T01:11:43;13.07;;;5.23;;
2558;SDS011;1289;53.488;10.006;2023-10-08T01:14:14;4.50;;;3.90;;
2558;SDS011;1289;53.488;10.006;2023-10-08T01:16:42;6.77;;;4.07;;
2558;SDS011;1289;53.488;10.006;2023-10-08T01:19:12;9.17;;;4.10;;
2558;SDS011;1289;53.488;10.006;2023-10-08T01:21:47;6.30;;;4.57;;
2558;SDS011;1289;53.488;10.006;2023-10-08T01:24:15;10.87;;;4.77;;
2558;SDS011;1289;53.488;10.006;2023-10-08T01:26:43;6.13;;;4.10;;
2558;SDS011;1289;53.488;10.006;2023-10-08T01:29:10;5.97;;;4.37;;
2558;SDS011;1289;53.488;10.006;2023-10-08T01:31:44;5.50;;;4.73;;
2558;SDS011;1289;53.488;10.006;2023-10-08T01:34:11;11.43;;;5.33;;
2558;SDS011;1289;53.488;10.006;2023-10-08T01:36:41;13.30;;;4.50;;
2558;SDS011;1289;53.488;10.006;2023-10-08T01:39:09;4.50;;;4.03;;
2558;SDS011;1289;53.488;10.006;2023-10-08T01:41:43;5.43;;;4.93;;
2558;SDS011;1289;53.488;10.006;2023-10-08T01:44:10;6.20;;;3.90;;
2558;SDS011;1289;53.488;10.006;2023-10-08T01:46:37;6.10;;;3.67;;
2558;SDS011;1289;53.488;10.006;2023-10-08T01:49:06;8.30;;;3.90;;
2558;SDS011;1289;53.488;10.006;2023-10-08T01:51:40;7.70;;;4.13;;
2558;SDS011;1289;53.488;10.006;2023-10-08T01:54:12;5.47;;;3.90;;
2558;SDS011;1289;53.488;10.006;2023-10-08T01:56:44;5.40;;;4.00;;
2558;SDS011;1289;53.488;10.006;2023-10-08T01:59:10;7.83;;;4.10;;
2558;SDS011;1289;53.488;10.006;2023-10-08T02:01:39;7.20;;;3.90;;
2558;SDS011;1289;53.488;10.006;2023-10-08T02:04:07;8.40;;;4.23;;
2558;SDS011;1289;53.488;10.006;2023-10-08T02:06:34;4.10;;;3.70;;
2558;SDS011;1289;53.488;10.006;2023-10-08T02:09:01;4.17;;;3.67;;
2558;SDS011;1289;53.488;10.006;2023-10-08T02:11:41;4.70;;;4.00;;
2558;SDS011;1289;53.488;10.006;2023-10-08T02:14:15;6.70;;;3.80;;
2558;SDS011;1289;53.488;10.006;2023-10-08T02:16:42;9.50;;;3.80;;
2558;SDS011;1289;53.488;10.006;2023-10-08T02:19:09;4.13;;;3.73;;
2558;SDS011;1289;53.488;10.006;2023-10-08T02:21:36;7.00;;;3.73;;
2558;SDS011;1289;53.488;10.006;2023-10-08T02:24:06;7.90;;;3.80;;
2558;SDS011;1289;53.488;10.006;2023-10-08T02:26:33;8.03;;;4.47;;
2558;SDS011;1289;53.488;10.006;2023-10-08T02:29:02;7.20;;;4.20;;
2558;SDS011;1289;53.488;10.006;2023-10-08T02:31:33;4.50;;;3.73;;
2558;SDS011;1289;53.488;10.006;2023-10-08T02:34:05;5.23;;;3.60;;
2558;SDS011;1289;53.488;10.006;2023-10-08T02:36:34;7.67;;;3.67;;
2558;SDS011;1289;53.488;10.006;2023-10-08T02:39:08;6.77;;;3.97;;
2558;SDS011;1289;53.488;10.006;2023-10-08T02:41:53;7.63;;;3.60;;
2558;SDS011;1289;53.488;10.006;2023-10-08T02:44:32;6.73;;;4.50;;
2558;SDS011;1289;53.488;10.006;2023-10-08T02:47:09;5.53;;;3.67;;
2558;SDS011;1289;53.488;10.006;2023-10-08T02:49:45;5.83;;;3.90;;
2558;SDS011;1289;53.488;10.006;2023-10-08T02:52:20;13.03;;;4.50;;
2558;SDS011;1289;53.488;10.006;2023-10-08T02:55:16;4.40;;;3.70;;
2558;SDS011;1289;53.488;10.006;2023-10-08T02:58:02;5.90;;;4.20;;
2558;SDS011;1289;53.488;10.006;2023-10-08T03:03:39;4.93;;;3.60;;
2558;SDS011;1289;53.488;10.006;2023-10-08T03:06:16;8.63;;;4.43;;
2558;SDS011;1289;53.488;10.006;2023-10-08T03:08:59;6.00;;;4.20;;
2558;SDS011;1289;53.488;10.006;2023-10-08T03:11:52;7.33;;;4.70;;
2558;SDS011;1289;53.488;10.006;2023-10-08T03:14:32;6.63;;;4.23;;
2558;SDS011;1289;53.488;10.006;2023-10-08T03:17:16;4.77;;;4.13;;
2558;SDS011;1289;53.488;10.006;2023-10-08T03:19:49;6.63;;;3.93;;
2558;SDS011;1289;53.488;10.006;2023-10-08T03:22:43;8.93;;;5.50;;
2558;SDS011;1289;53.488;10.006;2023-10-08T03:25:11;3.30;;;3.00;;
2558;SDS011;1289;53.488;10.006;2023-10-08T03:27:53;3.90;;;3.50;;
2558;SDS011;1289;53.488;10.006;2023-10-08T03:30:20;5.73;;;3.93;;
2558;SDS011;1289;53.488;10.006;2023-10-08T03:39:35;6.13;;;3.53;;
2558;SDS011;1289;53.488;10.006;2023-10-08T03:42:24;4.43;;;3.50;;
2558;SDS011;1289;53.488;10.006;2023-10-08T03:44:59;5.83;;;4.10;;
2558;SDS011;1289;53.488;10.006;2023-10-08T03:47:37;5.50;;;3.97;;
2558;SDS011;1289;53.488;10.006;2023-10-08T03:50:13;6.60;;;3.97;;
2558;SDS011;1289;53.488;10.006;2023-10-08T03:52:44;4.87;;;3.27;;
2558;SDS011;1289;53.488;10.006;2023-10-08T03:55:17;5.83;;;3.20;;
2558;SDS011;1289;53.488;10.006;2023-10-08T03:57:52;3.90;;;3.50;;
2558;SDS011;1289;53.488;10.006;2023-10-08T04:00:29;7.10;;;3.43;;
2558;SDS011;1289;53.488;10.006;2023-10-08T04:03:13;4.13;;;3.70;;
2558;SDS011;1289;53.488;10.006;2023-10-08T04:06:09;6.77;;;3.80;;
2558;SDS011;1289;53.488;10.006;2023-10-08T04:08:41;3.63;;;3.30;;
2558;SDS011;1289;53.488;10.006;2023-10-08T04:11:29;8.40;;;3.63;;
2558;SDS011;1289;53.488;10.006;2023-10-08T04:14:03;5.60;;;3.20;;
2558;SDS011;1289;53.488;10.006;2023-10-08T04:16:31;4.20;;;3.80;;
2558;SDS011;1289;53.488;10.006;2023-10-08T04:19:02;4.80;;;3.93;;
2558;SDS011;1289;53.488;10.006;2023-10-08T04:21:34;7.13;;;3.13;;
2558;SDS011;1289;53.488;10.006;2023-10-08T04:24:02;4.57;;;3.30;;
2558;SDS011;1289;53.488;10.006;2023-10-08T04:26:35;5.03;;;3.40;;
2558;SDS011;1289;53.488;10.006;2023-10-08T04:29:07;6.53;;;3.87;;
2558;SDS011;1289;53.488;10.006;2023-10-08T04:31:41;4.63;;;3.83;;
2558;SDS011;1289;53.488;10.006;2023-10-08T04:34:12;3.57;;;3.27;;
2558;SDS011;1289;53.488;10.006;2023-10-08T04:36:46;7.23;;;3.50;;
2558;SDS011;1289;53.488;10.006;2023-10-08T04:39:19;3.93;;;3.20;;
2558;SDS011;1289;53.488;10.006;2023-10-08T04:41:48;7.73;;;3.40;;
2558;SDS011;1289;53.488;10.006;2023-10-08T04:44:19;4.60;;;3.60;;
2558;SDS011;1289;53.488;10.006;2023-10-08T04:46:53;4.73;;;3.27;;
2558;SDS011;1289;53.488;10.006;2023-10-08T04:49:30;3.40;;;3.10;;
2558;SDS011;1289;53.488;10.006;2023-10-08T04:52:04;5.50;;;3.60;;
2558;SDS011;1289;53.488;10.006;2023-10-08T04:54:47;4.00;;;3.57;;
2558;SDS011;1289;53.488;10.006;2023-10-08T04:57:19;4.90;;;3.47;;
2558;SDS011;1289;53.488;10.006;2023-10-08T04:59:48;5.77;;;3.50;;
2558;SDS011;1289;53.488;10.006;2023-10-08T05:02:18;9.47;;;3.40;;
2558;SDS011;1289;53.488;10.006;2023-10-08T05:04:59;5.73;;;3.80;;
2558;SDS011;1289;53.488;10.006;2023-10-08T05:07:53;6.70;;;3.77;;
2558;SDS011;1289;53.488;10.006;2023-10-08T05:10:43;8.13;;;3.60;;
2558;SDS011;1289;53.488;10.006;2023-10-08T05:13:42;3.43;;;3.13;;
2558;SDS011;1289;53.488;10.006;2023-10-08T05:16:30;5.10;;;3.40;;
2558;SDS011;1289;53.488;10.006;2023-10-08T05:19:11;8.57;;;3.57;;
2558;SDS011;1289;53.488;10.006;2023-10-08T05:22:03;5.67;;;3.40;;
2558;SDS011;1289;53.488;10.006;2023-10-08T05:24:50;3.87;;;3.40;;
2558;SDS011;1289;53.488;10.006;2023-10-08T05:27:44;7.60;;;3.50;;
2558;SDS011;1289;53.488;10.006;2023-10-08T05:30:23;3.57;;;3.27;;
2558;SDS011;1289;53.488;10.006;2023-10-08T05:33:03;6.23;;;3.40;;
2558;SDS011;1289;53.488;10.006;2023-10-08T05:35:49;5.40;;;3.67;;
2558;SDS011;1289;53.488;10.006;2023-10-08T05:38:15;4.37;;;3.63;;
2558;SDS011;1289;53.488;10.006;2023-10-08T05:40:48;5.93;;;3.70;;
2558;SDS011;1289;53.488;10.006;2023-10-08T05:43:32;4.97;;;3.00;;
2558;SDS011;1289;53.488;10.006;2023-10-08T05:46:20;3.43;;;3.13;;
2558;SDS011;1289;53.488;10.006;2023-10-08T05:49:05;4.53;;;3.33;;
2558;SDS011;1289;53.488;10.006;2023-10-08T05:51:51;3.53;;;3.20;;
2558;SDS011;1289;53.488;10.006;2023-10-08T05:54:39;6.90;;;3.50;;
2558;SDS011;1289;53.488;10.006;2023-10-08T05:57:23;5.23;;;3.33;;
2558;SDS011;1289;53.488;10.006;2023-10-08T06:00:05;5.40;;;3.57;;
2558;SDS011;1289;53.488;10.006;2023-10-08T06:02:59;6.70;;;3.50;;
2558;SDS011;1289;53.488;10.006;2023-10-08T06:05:57;3.50;;;3.20;;
2558;SDS011;1289;53.488;10.006;2023-10-08T06:08:47;6.63;;;3.40;;
2558;SDS011;1289;53.488;10.006;2023-10-08T06:11:46;3.90;;;3.30;;
2558;SDS011;1289;53.488;10.006;2023-10-08T06:14:33;5.30;;;3.03;;
2558;SDS011;1289;53.488;10.006;2023-10-08T06:17:19;4.20;;;3.70;;
2558;SDS011;1289;53.488;10.006;2023-10-08T06:20:10;3.57;;;3.27;;
2558;SDS011;1289;53.488;10.006;2023-10-08T06:22:42;5.40;;;3.30;;
2558;SDS011;1289;53.488;10.006;2023-10-08T06:25:08;4.70;;;4.13;;
2558;SDS011;1289;53.488;10.006;2023-10-08T06:27:48;3.73;;;3.40;;
2558;SDS011;1289;53.488;10.006;2023-10-08T06:30:19;7.60;;;4.67;;
2558;SDS011;1289;53.488;10.006;2023-10-08T06:32:47;4.90;;;3.80;;
2558;SDS011;1289;53.488;10.006;2023-10-08T06:35:15;7.03;;;4.03;;
2558;SDS011;1289;53.488;10.006;2023-10-08T06:37:44;4.60;;;3.60;;
2558;SDS011;1289;53.488;10.006;2023-10-08T06:40:14;8.13;;;4.13;;
2558;SDS011;1289;53.488;10.006;2023-10-08T06:42:54;4.40;;;3.70;;
2558;SDS011;1289;53.488;10.006;2023-10-08T06:45:22;5.33;;;3.20;;
2558;SDS011;1289;53.488;10.006;2023-10-08T06:47:54;4.50;;;3.33;;
2558;SDS011;1289;53.488;10.006;2023-10-08T06:50:22;4.83;;;3.90;;
2558;SDS011;1289;53.488;10.006;2023-10-08T06:52:49;6.03;;;3.60;;
2558;SDS011;1289;53.488;10.006;2023-10-08T06:55:15;4.27;;;3.47;;
2558;SDS011;1289;53.488;10.006;2023-10-08T06:57:44;5.93;;;3.90;;
2558;SDS011;1289;53.488;10.006;2023-10-08T07:00:13;4.13;;;3.00;;
2558;SDS011;1289;53.488;10.006;2023-10-08T07:03:02;7.47;;;3.70;;
2558;SDS011;1289;53.488;10.006;2023-10-08T07:05:29;3.50;;;3.10;;
2558;SDS011;1289;53.488;10.006;2023-10-08T07:07:55;9.53;;;3.17;;
2558;SDS011;1289;53.488;10.006;2023-10-08T07:10:22;5.13;;;3.50;;
2558;SDS011;1289;53.488;10.006;2023-10-08T07:12:49;8.27;;;3.37;;
2558;SDS011;1289;53.488;10.006;2023-10-08T07:15:18;3.80;;;3.23;;
2558;SDS011;1289;53.488;10.006;2023-10-08T07:17:49;5.50;;;3.40;;
2558;SDS011;1289;53.488;10.006;2023-10-08T07:20:17;3.87;;;2.90;;
2558;SDS011;1289;53.488;10.006;2023-10-08T07:22:46;4.80;;;3.50;;
2558;SDS011;1289;53.488;10.006;2023-10-08T07:25:19;8.50;;;3.40;;
2558;SDS011;1289;53.488;10.006;2023-10-08T07:27:46;3.77;;;3.47;;
2558;SDS011;1289;53.488;10.006;2023-10-08T07:30:13;5.07;;;3.40;;
2558;SDS011;1289;53.488;10.006;2023-10-08T07:32:51;6.67;;;3.40;;
2558;SDS011;1289;53.488;10.006;2023-10-08T07:35:20;4.30;;;2.73;;
2558;SDS011;1289;53.488;10.006;2023-10-08T07:37:50;3.47;;;2.70;;
2558;SDS011;1289;53.488;10.006;2023-10-08T07:40:19;6.70;;;3.27;;
2558;SDS011;1289;53.488;10.006;2023-10-08T07:42:46;5.00;;;3.00;;
2558;SDS011;1289;53.488;10.006;2023-10-08T07:45:17;2.97;;;2.60;;
2558;SDS011;1289;53.488;10.006;2023-10-08T07:47:46;5.03;;;3.27;;
2558;SDS011;1289;53.488;10.006;2023-10-08T07:50:14;3.40;;;3.07;;
2558;SDS011;1289;53.488;10.006;2023-10-08T07:52:42;3.93;;;2.53;;
2558;SDS011;1289;53.488;10.006;2023-10-08T07:55:10;4.37;;;2.73;;
2558;SDS011;1289;53.488;10.006;2023-10-08T07:57:42;7.13;;;2.60;;
2558;SDS011;1289;53.488;10.006;2023-10-08T08:00:10;4.47;;;2.50;;
2558;SDS011;1289;53.488;10.006;2023-10-08T08:02:47;3.33;;;2.83;;
2558;SDS011;1289;53.488;10.006;2023-10-08T08:05:17;5.00;;;2.90;;
2558;SDS011;1289;53.488;10.006;2023-10-08T08:07:45;4.50;;;2.80;;
2558;SDS011;1289;53.488;10.006;2023-10-08T08:10:11;5.80;;;2.90;;
2558;SDS011;1289;53.488;10.006;2023-10-08T08:12:39;4.17;;;2.90;;
2558;SDS011;1289;53.488;10.006;2023-10-08T08:15:06;6.23;;;2.53;;
2558;SDS011;1289;53.488;10.006;2023-10-08T08:17:40;5.07;;;2.70;;
2558;SDS011;1289;53.488;10.006;2023-10-08T08:20:07;2.60;;;2.37;;
2558;SDS011;1289;53.488;10.006;2023-10-08T08:22:46;3.70;;;2.33;;
2558;SDS011;1289;53.488;10.006;2023-10-08T08:25:19;6.43;;;2.90;;
2558;SDS011;1289;53.488;10.006;2023-10-08T08:27:59;5.40;;;2.60;;
2558;SDS011;1289;53.488;10.006;2023-10-08T08:30:25;4.47;;;3.00;;
2558;SDS011;1289;53.488;10.006;2023-10-08T08:32:52;2.83;;;2.50;;
2558;SDS011;1289;53.488;10.006;2023-10-08T08:35:21;3.80;;;2.47;;
2558;SDS011;1289;53.488;10.006;2023-10-08T08:37:50;3.00;;;2.10;;
2558;SDS011;1289;53.488;10.006;2023-10-08T08:40:17;4.13;;;2.50;;
2558;SDS011;1289;53.488;10.006;2023-10-08T08:42:45;7.30;;;2.70;;
2558;SDS011;1289;53.488;10.006;2023-10-08T08:45:12;3.80;;;2.27;;
2558;SDS011;1289;53.488;10.006;2023-10-08T08:47:40;3.00;;;2.50;;
2558;SDS011;1289;53.488;10.006;2023-10-08T08:50:07;3.50;;;2.17;;
2558;SDS011;1289;53.488;10.006;2023-10-08T08:52:34;3.97;;;2.43;;
2558;SDS011;1289;53.488;10.006;2023-10-08T08:55:04;3.20;;;2.27;;
2558;SDS011;1289;53.488;10.006;2023-10-08T08:57:35;3.57;;;2.30;;
2558;SDS011;1289;53.488;10.006;2023-10-08T09:00:05;4.93;;;2.50;;
2558;SDS011;1289;53.488;10.006;2023-10-08T09:02:33;3.30;;;2.60;;
2558;SDS011;1289;53.488;10.006;2023-10-08T09:05:00;3.57;;;2.30;;
2558;SDS011;1289;53.488;10.006;2023-10-08T09:07:50;4.43;;;2.33;;
2558;SDS011;1289;53.488;10.006;2023-10-08T09:10:20;3.80;;;2.53;;
2558;SDS011;1289;53.488;10.006;2023-10-08T09:12:52;4.03;;;2.37;;
2558;SDS011;1289;53.488;10.006;2023-10-08T09:15:19;5.10;;;3.13;;
2558;SDS011;1289;53.488;10.006;2023-10-08T09:17:47;3.57;;;2.60;;
2558;SDS011;1289;53.488;10.006;2023-10-08T09:20:14;3.47;;;2.40;;
2558;SDS011;1289;53.488;10.006;2023-10-08T09:22:41;3.43;;;2.47;;
2558;SDS011;1289;53.488;10.006;2023-10-08T09:25:07;5.87;;;2.70;;
2558;SDS011;1289;53.488;10.006;2023-10-08T09:27:36;3.23;;;2.43;;
2558;SDS011;1289;53.488;10.006;2023-10-08T09:30:04;2.50;;;2.20;;
2558;SDS011;1289;53.488;10.006;2023-10-08T09:32:33;3.97;;;2.50;;
2558;SDS011;1289;53.488;10.006;2023-10-08T09:35:00;3.03;;;2.60;;
2558;SDS011;1289;53.488;10.006;2023-10-08T09:37:27;3.60;;;2.17;;
2558;SDS011;1289;53.488;10.006;2023-10-08T09:39:54;6.80;;;2.53;;
2558;SDS011;1289;53.488;10.006;2023-10-08T09:42:21;3.00;;;2.27;;
2558;SDS011;1289;53.488;10.006;2023-10-08T09:44:51;3.90;;;2.43;;
2558;SDS011;1289;53.488;10.006;2023-10-08T09:47:21;4.03;;;2.13;;
2558;SDS011;1289;53.488;10.006;2023-10-08T09:49:50;3.70;;;2.13;;
2558;SDS011;1289;53.488;10.006;2023-10-08T09:52:24;4.40;;;2.43;;
2558;SDS011;1289;53.488;10.006;2023-10-08T09:54:56;4.93;;;2.70;;
2558;SDS011;1289;53.488;10.006;2023-10-08T09:57:26;5.73;;;3.50;;
2558;SDS011;1289;53.488;10.006;2023-10-08T09:59:54;2.70;;;2.50;;
2558;SDS011;1289;53.488;10.006;2023-10-08T10:02:22;2.47;;;2.07;;
2558;SDS011;1289;53.488;10.006;2023-10-08T10:04:52;2.40;;;2.03;;
2558;SDS011;1289;53.488;10.006;2023-10-08T10:07:19;4.67;;;2.50;;
2558;SDS011;1289;53.488;10.006;2023-10-08T10:09:49;3.40;;;2.27;;
2558;SDS011;1289;53.488;10.006;2023-10-08T10:12:18;5.10;;;2.63;;
2558;SDS011;1289;53.488;10.006;2023-10-08T10:14:51;2.77;;;2.33;;
2558;SDS011;1289;53.488;10.006;2023-10-08T10:17:22;2.90;;;1.97;;
2558;SDS011;1289;53.488;10.006;2023-10-08T10:19:53;3.73;;;2.50;;
2558;SDS011;1289;53.488;10.006;2023-10-08T10:22:27;2.40;;;2.10;;
2558;SDS011;1289;53.488;10.006;2023-10-08T10:24:54;3.73;;;2.37;;
2558;SDS011;1289;53.488;10.006;2023-10-08T10:27:21;3.87;;;2.77;;
2558;SDS011;1289;53.488;10.006;2023-10-08T10:29:48;4.13;;;2.20;;
2558;SDS011;1289;53.488;10.006;2023-10-08T10:32:15;2.77;;;2.20;;
2558;SDS011;1289;53.488;10.006;2023-10-08T10:34:43;5.77;;;2.10;;
2558;SDS011;1289;53.488;10.006;2023-10-08T10:37:12;3.20;;;2.17;;
2558;SDS011;1289;53.488;10.006;2023-10-08T10:39:53;3.47;;;2.23;;
2558;SDS011;1289;53.488;10.006;2023-10-08T10:42:21;2.87;;;2.30;;
2558;SDS011;1289;53.488;10.006;2023-10-08T10:44:48;4.30;;;2.70;;
2558;SDS011;1289;53.488;10.006;2023-10-08T10:47:15;3.40;;;2.20;;
2558;SDS011;1289;53.488;10.006;2023-10-08T10:50:09;3.50;;;2.07;;
2558;SDS011;1289;53.488;10.006;2023-10-08T10:52:57;2.57;;;1.77;;
2558;SDS011;1289;53.488;10.006;2023-10-08T10:55:22;2.20;;;2.00;;
2558;SDS011;1289;53.488;10.006;2023-10-08T10:57:57;2.60;;;2.20;;
2558;SDS011;1289;53.488;10.006;2023-10-08T11:00:29;3.40;;;2.43;;
2558;SDS011;1289;53.488;10.006;2023-10-08T11:03:22;2.97;;;1.60;;
2558;SDS011;1289;53.488;10.006;2023-10-08T11:05:56;3.23;;;2.00;;
2558;SDS011;1289;53.488;10.006;2023-10-08T11:08:25;3.27;;;2.30;;
2558;SDS011;1289;53.488;10.006;2023-10-08T11:10:51;2.97;;;2.27;;
2558;SDS011;1289;53.488;10.006;2023-10-08T11:13:24;4.70;;;2.90;;
2558;SDS011;1289;53.488;10.006;2023-10-08T11:15:54;2.17;;;1.97;;
2558;SDS011;1289;53.488;10.006;2023-10-08T11:18:24;4.17;;;2.17;;
2558;SDS011;1289;53.488;10.006;2023-10-08T11:20:53;2.20;;;1.93;;
2558;SDS011;1289;53.488;10.006;2023-10-08T11:23:44;2.07;;;1.87;;
2558;SDS011;1289;53.488;10.006;2023-10-08T11:26:17;2.87;;;2.33;;
2558;SDS011;1289;53.488;10.006;2023-10-08T11:28:45;3.13;;;2.00;;
2558;SDS011;1289;53.488;10.006;2023-10-08T11:31:13;2.77;;;2.57;;
2558;SDS011;1289;53.488;10.006;2023-10-08T11:33:44;4.13;;;2.70;;
2558;SDS011;1289;53.488;10.006;2023-10-08T11:36:20;3.23;;;2.33;;
2558;SDS011;1289;53.488;10.006;2023-10-08T11:38:53;4.17;;;2.20;;
2558;SDS011;1289;53.488;10.006;2023-10-08T11:41:26;2.30;;;2.10;;
2558;SDS011;1289;53.488;10.006;2023-10-08T11:43:54;5.83;;;3.10;;
2558;SDS011;1289;53.488;10.006;2023-10-08T11:46:23;3.30;;;2.20;;
2558;SDS011;1289;53.488;10.006;2023-10-08T11:48:53;4.60;;;2.30;;
2558;SDS011;1289;53.488;10.006;2023-10-08T11:51:24;7.00;;;2.50;;
2558;SDS011;1289;53.488;10.006;2023-10-08T11:53:52;5.23;;;4.00;;
2558;SDS011;1289;53.488;10.006;2023-10-08T11:56:19;2.77;;;2.40;;
2558;SDS011;1289;53.488;10.006;2023-10-08T11:58:48;3.20;;;2.47;;
2558;SDS011;1289;53.488;10.006;2023-10-08T12:01:16;3.10;;;2.40;;
2558;SDS011;1289;53.488;10.006;2023-10-08T12:03:43;5.93;;;2.30;;
2558;SDS011;1289;53.488;10.006;2023-10-08T12:06:10;3.03;;;2.30;;
2558;SDS011;1289;53.488;10.006;2023-10-08T12:08:42;3.03;;;2.40;;
2558;SDS011;1289;53.488;10.006;2023-10-08T12:11:11;2.57;;;2.37;;
2558;SDS011;1289;53.488;10.006;2023-10-08T12:13:39;2.10;;;1.90;;
2558;SDS011;1289;53.488;10.006;2023-10-08T12:16:10;3.90;;;2.40;;
2558;SDS011;1289;53.488;10.006;2023-10-08T12:18:44;2.73;;;2.33;;
2558;SDS011;1289;53.488;10.006;2023-10-08T12:21:13;2.67;;;2.40;;
2558;SDS011;1289;53.488;10.006;2023-10-08T12:23:42;2.83;;;2.20;;
2558;SDS011;1289;53.488;10.006;2023-10-08T12:26:11;5.33;;;3.80;;
2558;SDS011;1289;53.488;10.006;2023-10-08T12:28:41;2.30;;;2.00;;
2558;SDS011;1289;53.488;10.006;2023-10-08T12:31:09;2.43;;;2.20;;
2558;SDS011;1289;53.488;10.006;2023-10-08T12:33:35;2.60;;;2.40;;
2558;SDS011;1289;53.488;10.006;2023-10-08T12:36:02;3.50;;;2.20;;
2558;SDS011;1289;53.488;10.006;2023-10-08T12:38:36;3.17;;;2.50;;
2558;SDS011;1289;53.488;10.006;2023-10-08T12:41:04;3.37;;;2.67;;
2558;SDS011;1289;53.488;10.006;2023-10-08T12:43:37;2.63;;;2.10;;
2558;SDS011;1289;53.488;10.006;2023-10-08T12:46:04;8.33;;;3.03;;
2558;SDS011;1289;53.488;10.006;2023-10-08T12:48:36;3.97;;;2.70;;
2558;SDS011;1289;53.488;10.006;2023-10-08T12:51:03;3.23;;;2.57;;
2558;SDS011;1289;53.488;10.006;2023-10-08T12:53:32;4.40;;;3.33;;
2558;SDS011;1289;53.488;10.006;2023-10-08T12:55:59;2.70;;;2.27;;
2558;SDS011;1289;53.488;10.006;2023-10-08T12:58:32;3.00;;;2.50;;
2558;SDS011;1289;53.488;10.006;2023-10-08T13:01:06;4.00;;;2.50;;
2558;SDS011;1289;53.488;10.006;2023-10-08T13:03:34;3.00;;;2.70;;
2558;SDS011;1289;53.488;10.006;2023-10-08T13:06:06;2.93;;;2.53;;
2558;SDS011;1289;53.488;10.006;2023-10-08T13:08:36;3.03;;;2.40;;
2558;SDS011;1289;53.488;10.006;2023-10-08T13:11:03;3.90;;;2.27;;
2558;SDS011;1289;53.488;10.006;2023-10-08T13:13:31;2.73;;;2.40;;
2558;SDS011;1289;53.488;10.006;2023-10-08T13:15:58;4.50;;;2.37;;
2558;SDS011;1289;53.488;10.006;2023-10-08T13:18:28;3.87;;;2.90;;
2558;SDS011;1289;53.488;10.006;2023-10-08T13:20:55;3.17;;;2.50;;
2558;SDS011;1289;53.488;10.006;2023-10-08T13:23:22;2.57;;;2.33;;
2558;SDS011;1289;53.488;10.006;2023-10-08T13:25:49;4.50;;;2.70;;
2558;SDS011;1289;53.488;10.006;2023-10-08T13:28:19;2.93;;;2.40;;
2558;SDS011;1289;53.488;10.006;2023-10-08T13:30:49;2.60;;;2.37;;
2558;SDS011;1289;53.488;10.006;2023-10-08T13:33:18;3.33;;;2.80;;
2558;SDS011;1289;53.488;10.006;2023-10-08T13:35:45;3.80;;;2.37;;
2558;SDS011;1289;53.488;10.006;2023-10-08T13:38:15;9.20;;;3.67;;
2558;SDS011;1289;53.488;10.006;2023-10-08T13:40:42;3.40;;;2.73;;
2558;SDS011;1289;53.488;10.006;2023-10-08T13:43:27;3.43;;;3.10;;
2558;SDS011;1289;53.488;10.006;2023-10-08T13:46:01;3.73;;;2.60;;
2558;SDS011;1289;53.488;10.006;2023-10-08T13:48:30;2.97;;;2.67;;
2558;SDS011;1289;53.488;10.006;2023-10-08T13:50:59;2.70;;;2.50;;
2558;SDS011;1289;53.488;10.006;2023-10-08T13:53:26;3.50;;;3.10;;
2558;SDS011;1289;53.488;10.006;2023-10-08T13:55:55;2.90;;;2.67;;
2558;SDS011;1289;53.488;10.006;2023-10-08T13:58:23;3.67;;;2.50;;
2558;SDS011;1289;53.488;10.006;2023-10-08T14:00:50;2.93;;;2.67;;
2558;SDS011;1289;53.488;10.006;2023-10-08T14:03:19;2.83;;;2.50;;
2558;SDS011;1289;53.488;10.006;2023-10-08T14:05:47;4.43;;;2.17;;
2558;SDS011;1289;53.488;10.006;2023-10-08T14:08:15;2.40;;;2.13;;
2558;SDS011;1289;53.488;10.006;2023-10-08T14:10:43;3.93;;;3.40;;
2558;SDS011;1289;53.488;10.006;2023-10-08T14:13:10;3.60;;;2.53;;
2558;SDS011;1289;53.488;10.006;2023-10-08T14:15:36;2.70;;;2.50;;
2558;SDS011;1289;53.488;10.006;2023-10-08T14:18:09;4.13;;;2.17;;
2558;SDS011;1289;53.488;10.006;2023-10-08T14:20:43;2.87;;;2.63;;
2558;SDS011;1289;53.488;10.006;2023-10-08T14:23:12;9.20;;;2.90;;
2558;SDS011;1289;53.488;10.006;2023-10-08T14:25:41;3.90;;;2.40;;
2558;SDS011;1289;53.488;10.006;2023-10-08T14:28:10;2.60;;;2.30;;
2558;SDS011;1289;53.488;10.006;2023-10-08T14:30:47;2.83;;;2.57;;
2558;SDS011;1289;53.488;10.006;2023-10-08T14:33:18;2.87;;;2.47;;
2558;SDS011;1289;53.488;10.006;2023-10-08T14:35:51;4.00;;;2.70;;
2558;SDS011;1289;53.488;10.006;2023-10-08T14:38:35;2.90;;;2.50;;
2558;SDS011;1289;53.488;10.006;2023-10-08T14:41:19;4.33;;;3.30;;
2558;SDS011;1289;53.488;10.006;2023-10-08T14:44:03;5.53;;;2.37;;
2558;SDS011;1289;53.488;10.006;2023-10-08T14:46:32;5.70;;;2.70;;
2558;SDS011;1289;53.488;10.006;2023-10-08T14:49:02;2.30;;;2.10;;
2558;SDS011;1289;53.488;10.006;2023-10-08T14:51:36;3.30;;;2.70;;
2558;SDS011;1289;53.488;10.006;2023-10-08T14:54:05;2.40;;;2.20;;
2558;SDS011;1289;53.488;10.006;2023-10-08T14:56:33;3.40;;;2.30;;
2558;SDS011;1289;53.488;10.006;2023-10-08T14:59:00;2.83;;;2.30;;
2558;SDS011;1289;53.488;10.006;2023-10-08T15:01:27;3.13;;;2.70;;
2558;SDS011;1289;53.488;10.006;2023-10-08T15:03:54;5.00;;;3.13;;
2558;SDS011;1289;53.488;10.006;2023-10-08T15:06:20;3.13;;;2.70;;
2558;SDS011;1289;53.488;10.006;2023-10-08T15:08:49;4.43;;;2.43;;
2558;SDS011;1289;53.488;10.006;2023-10-08T15:11:17;6.70;;;2.70;;
2558;SDS011;1289;53.488;10.006;2023-10-08T15:13:44;4.97;;;2.33;;
2558;SDS011;1289;53.488;10.006;2023-10-08T15:16:11;3.27;;;2.97;;
2558;SDS011;1289;53.488;10.006;2023-10-08T15:18:38;5.73;;;2.70;;
2558;SDS011;1289;53.488;10.006;2023-10-08T15:21:07;2.73;;;2.50;;
2558;SDS011;1289;53.488;10.006;2023-10-08T15:23:34;3.70;;;2.50;;
2558;SDS011;1289;53.488;10.006;2023-10-08T15:26:04;4.30;;;2.57;;
2558;SDS011;1289;53.488;10.006;2023-10-08T15:28:31;4.17;;;2.73;;
2558;SDS011;1289;53.488;10.006;2023-10-08T15:30:58;2.90;;;2.63;;
2558;SDS011;1289;53.488;10.006;2023-10-08T15:33:24;3.30;;;2.27;;
2558;SDS011;1289;53.488;10.006;2023-10-08T15:35:52;10.83;;;3.13;;
2558;SDS011;1289;53.488;10.006;2023-10-08T15:38:17;3.53;;;2.60;;
2558;SDS011;1289;53.488;10.006;2023-10-08T15:40:44;2.90;;;2.70;;